sensor_id;sensor_type;location;lat;lon;timestamp;P1;durP1;ratioP1;P2;durP2;ratioP2
353;SDS011;165;53.592;10.044;2023-02-23T00:01:40;24.00;;;14.10;;
353;SDS011;165;53.592;10.044;2023-02-23T00:04:06;23.13;;;15.50;;
353;SDS011;165;53.592;10.044;2023-02-23T00:06:33;28.93;;;16.20;;
353;SDS011;165;53.592;10.044;2023-02-23T00:08:59;32.27;;;16.93;;
353;SDS011;165;53.592;10.044;2023-02-23T00:11:26;25.20;;;16.60;;
353;SDS011;165;53.592;10.044;2023-02-23T00:13:52;25.40;;;16.63;;
353;SDS011;165;53.592;10.044;2023-02-23T00:16:19;26.73;;;16.23;;
353;SDS011;165;53.592;10.044;2023-02-23T00:18:47;30.03;;;16.80;;
353;SDS011;165;53.592;10.044;2023-02-23T00:21:24;24.57;;;15.57;;
353;SDS011;165;53.592;10.044;2023-02-23T00:23:58;27.03;;;16.30;;
353;SDS011;165;53.592;10.044;2023-02-23T00:26:26;33.90;;;18.57;;
353;SDS011;165;53.592;10.044;2023-02-23T00:28:52;23.57;;;16.27;;
353;SDS011;165;53.592;10.044;2023-02-23T00:31:18;26.43;;;16.43;;
353;SDS011;165;53.592;10.044;2023-02-23T00:33:45;25.90;;;15.80;;
353;SDS011;165;53.592;10.044;2023-02-23T00:36:12;26.50;;;16.43;;
353;SDS011;165;53.592;10.044;2023-02-23T00:38:39;27.70;;;16.77;;
353;SDS011;165;53.592;10.044;2023-02-23T00:41:06;27.80;;;18.57;;
353;SDS011;165;53.592;10.044;2023-02-23T00:43:34;24.73;;;16.47;;
353;SDS011;165;53.592;10.044;2023-02-23T00:46:01;24.30;;;15.77;;
353;SDS011;165;53.592;10.044;2023-02-23T00:48:27;26.37;;;15.57;;
353;SDS011;165;53.592;10.044;2023-02-23T00:50:59;26.97;;;17.73;;
353;SDS011;165;53.592;10.044;2023-02-23T00:53:25;29.07;;;16.93;;
353;SDS011;165;53.592;10.044;2023-02-23T00:55:51;27.17;;;16.87;;
353;SDS011;165;53.592;10.044;2023-02-23T00:58:18;29.53;;;17.53;;
353;SDS011;165;53.592;10.044;2023-02-23T01:00:43;26.03;;;15.90;;
353;SDS011;165;53.592;10.044;2023-02-23T01:03:09;25.50;;;16.67;;
353;SDS011;165;53.592;10.044;2023-02-23T01:05:34;26.37;;;15.93;;
353;SDS011;165;53.592;10.044;2023-02-23T01:08:00;31.03;;;17.60;;
353;SDS011;165;53.592;10.044;2023-02-23T01:10:25;26.23;;;17.00;;
353;SDS011;165;53.592;10.044;2023-02-23T01:12:51;34.20;;;18.67;;
353;SDS011;165;53.592;10.044;2023-02-23T01:15:18;29.50;;;15.73;;
353;SDS011;165;53.592;10.044;2023-02-23T01:17:44;26.20;;;16.60;;
353;SDS011;165;53.592;10.044;2023-02-23T01:20:14;30.40;;;17.80;;
353;SDS011;165;53.592;10.044;2023-02-23T01:22:41;28.50;;;17.67;;
353;SDS011;165;53.592;10.044;2023-02-23T01:25:07;29.63;;;17.87;;
353;SDS011;165;53.592;10.044;2023-02-23T01:27:36;26.67;;;18.33;;
353;SDS011;165;53.592;10.044;2023-02-23T01:30:02;28.70;;;17.80;;
353;SDS011;165;53.592;10.044;2023-02-23T01:32:28;28.20;;;17.87;;
353;SDS011;165;53.592;10.044;2023-02-23T01:34:53;28.93;;;18.00;;
353;SDS011;165;53.592;10.044;2023-02-23T01:37:18;29.67;;;19.20;;
353;SDS011;165;53.592;10.044;2023-02-23T01:39:44;31.37;;;18.27;;
353;SDS011;165;53.592;10.044;2023-02-23T01:42:12;28.40;;;17.57;;
353;SDS011;165;53.592;10.044;2023-02-23T01:47:04;29.83;;;18.73;;
353;SDS011;165;53.592;10.044;2023-02-23T01:49:30;33.90;;;17.83;;
353;SDS011;165;53.592;10.044;2023-02-23T01:51:58;24.60;;;17.73;;
353;SDS011;165;53.592;10.044;2023-02-23T01:54:32;27.93;;;18.17;;
353;SDS011;165;53.592;10.044;2023-02-23T01:57:01;31.80;;;19.13;;
353;SDS011;165;53.592;10.044;2023-02-23T02:02:05;28.00;;;17.80;;
353;SDS011;165;53.592;10.044;2023-02-23T02:04:31;30.07;;;18.40;;
353;SDS011;165;53.592;10.044;2023-02-23T02:06:59;29.40;;;17.40;;
353;SDS011;165;53.592;10.044;2023-02-23T02:09:25;29.47;;;18.23;;
353;SDS011;165;53.592;10.044;2023-02-23T02:11:52;28.40;;;18.50;;
353;SDS011;165;53.592;10.044;2023-02-23T02:14:26;34.33;;;17.80;;
353;SDS011;165;53.592;10.044;2023-02-23T02:19:58;34.40;;;18.20;;
353;SDS011;165;53.592;10.044;2023-02-23T02:22:43;25.00;;;16.67;;
353;SDS011;165;53.592;10.044;2023-02-23T02:25:37;31.53;;;17.27;;
353;SDS011;165;53.592;10.044;2023-02-23T02:28:27;29.73;;;17.40;;
353;SDS011;165;53.592;10.044;2023-02-23T02:39:19;30.63;;;18.37;;
353;SDS011;165;53.592;10.044;2023-02-23T02:42:02;30.50;;;19.07;;
353;SDS011;165;53.592;10.044;2023-02-23T02:44:54;26.27;;;17.50;;
353;SDS011;165;53.592;10.044;2023-02-23T02:50:10;29.67;;;18.40;;
353;SDS011;165;53.592;10.044;2023-02-23T02:52:47;30.23;;;18.43;;
353;SDS011;165;53.592;10.044;2023-02-23T02:55:23;29.40;;;19.07;;
353;SDS011;165;53.592;10.044;2023-02-23T02:57:52;33.47;;;19.53;;
353;SDS011;165;53.592;10.044;2023-02-23T03:00:28;28.63;;;17.97;;
353;SDS011;165;53.592;10.044;2023-02-23T03:02:58;28.93;;;17.93;;
353;SDS011;165;53.592;10.044;2023-02-23T03:05:28;27.50;;;16.33;;
353;SDS011;165;53.592;10.044;2023-02-23T03:08:10;27.93;;;17.47;;
353;SDS011;165;53.592;10.044;2023-02-23T03:11:04;32.97;;;18.50;;
353;SDS011;165;53.592;10.044;2023-02-23T03:19:14;30.40;;;18.60;;
353;SDS011;165;53.592;10.044;2023-02-23T03:24:50;30.90;;;18.23;;
353;SDS011;165;53.592;10.044;2023-02-23T03:27:54;26.53;;;16.63;;
353;SDS011;165;53.592;10.044;2023-02-23T03:30:42;33.27;;;18.10;;
353;SDS011;165;53.592;10.044;2023-02-23T03:33:36;32.80;;;19.23;;
353;SDS011;165;53.592;10.044;2023-02-23T03:36:12;29.23;;;18.20;;
353;SDS011;165;53.592;10.044;2023-02-23T03:38:56;31.40;;;19.20;;
353;SDS011;165;53.592;10.044;2023-02-23T03:41:31;29.77;;;18.97;;
353;SDS011;165;53.592;10.044;2023-02-23T03:44:01;37.00;;;19.47;;
353;SDS011;165;53.592;10.044;2023-02-23T03:46:31;30.23;;;19.27;;
353;SDS011;165;53.592;10.044;2023-02-23T03:48:59;28.20;;;18.60;;
353;SDS011;165;53.592;10.044;2023-02-23T03:51:29;31.40;;;17.37;;
353;SDS011;165;53.592;10.044;2023-02-23T03:54:00;24.20;;;16.50;;
353;SDS011;165;53.592;10.044;2023-02-23T03:56:47;27.33;;;17.50;;
353;SDS011;165;53.592;10.044;2023-02-23T03:59:15;23.73;;;16.20;;
353;SDS011;165;53.592;10.044;2023-02-23T04:01:44;28.80;;;20.10;;
353;SDS011;165;53.592;10.044;2023-02-23T04:04:12;26.47;;;17.13;;
353;SDS011;165;53.592;10.044;2023-02-23T04:06:38;26.40;;;16.20;;
353;SDS011;165;53.592;10.044;2023-02-23T04:09:07;28.23;;;17.17;;
353;SDS011;165;53.592;10.044;2023-02-23T04:14:25;27.23;;;17.57;;
353;SDS011;165;53.592;10.044;2023-02-23T04:16:55;21.20;;;13.60;;
353;SDS011;165;53.592;10.044;2023-02-23T04:19:21;28.47;;;18.10;;
353;SDS011;165;53.592;10.044;2023-02-23T04:21:51;30.70;;;17.57;;
353;SDS011;165;53.592;10.044;2023-02-23T04:24:16;25.10;;;16.00;;
353;SDS011;165;53.592;10.044;2023-02-23T04:26:42;30.50;;;19.57;;
353;SDS011;165;53.592;10.044;2023-02-23T04:29:09;26.60;;;17.03;;
353;SDS011;165;53.592;10.044;2023-02-23T04:31:35;29.30;;;17.80;;
353;SDS011;165;53.592;10.044;2023-02-23T04:34:01;32.03;;;19.77;;
353;SDS011;165;53.592;10.044;2023-02-23T04:36:26;30.30;;;18.80;;
353;SDS011;165;53.592;10.044;2023-02-23T04:38:52;28.10;;;19.07;;
353;SDS011;165;53.592;10.044;2023-02-23T04:41:17;26.40;;;19.00;;
353;SDS011;165;53.592;10.044;2023-02-23T04:43:43;29.43;;;18.20;;
353;SDS011;165;53.592;10.044;2023-02-23T04:46:08;28.17;;;18.03;;
353;SDS011;165;53.592;10.044;2023-02-23T04:48:33;24.47;;;15.70;;
353;SDS011;165;53.592;10.044;2023-02-23T04:50:59;28.90;;;18.20;;
353;SDS011;165;53.592;10.044;2023-02-23T04:53:24;33.53;;;19.13;;
353;SDS011;165;53.592;10.044;2023-02-23T04:55:50;30.23;;;18.30;;
353;SDS011;165;53.592;10.044;2023-02-23T04:58:15;30.83;;;19.13;;
353;SDS011;165;53.592;10.044;2023-02-23T05:00:41;29.30;;;18.53;;
353;SDS011;165;53.592;10.044;2023-02-23T05:03:06;31.53;;;20.40;;
353;SDS011;165;53.592;10.044;2023-02-23T05:05:32;29.37;;;21.97;;
353;SDS011;165;53.592;10.044;2023-02-23T05:07:57;31.73;;;19.30;;
353;SDS011;165;53.592;10.044;2023-02-23T05:10:23;37.80;;;20.10;;
353;SDS011;165;53.592;10.044;2023-02-23T05:12:48;35.80;;;21.43;;
353;SDS011;165;53.592;10.044;2023-02-23T05:15:14;35.13;;;20.60;;
353;SDS011;165;53.592;10.044;2023-02-23T05:17:40;37.17;;;20.77;;
353;SDS011;165;53.592;10.044;2023-02-23T05:20:06;35.13;;;21.33;;
353;SDS011;165;53.592;10.044;2023-02-23T05:22:36;34.17;;;21.07;;
353;SDS011;165;53.592;10.044;2023-02-23T05:25:02;38.00;;;21.77;;
353;SDS011;165;53.592;10.044;2023-02-23T05:27:28;33.23;;;20.57;;
353;SDS011;165;53.592;10.044;2023-02-23T05:29:53;33.50;;;22.03;;
353;SDS011;165;53.592;10.044;2023-02-23T05:32:19;33.07;;;22.20;;
353;SDS011;165;53.592;10.044;2023-02-23T05:34:44;34.63;;;21.90;;
353;SDS011;165;53.592;10.044;2023-02-23T05:37:10;36.23;;;20.93;;
353;SDS011;165;53.592;10.044;2023-02-23T05:39:35;36.13;;;21.07;;
353;SDS011;165;53.592;10.044;2023-02-23T05:42:01;38.37;;;22.50;;
353;SDS011;165;53.592;10.044;2023-02-23T05:44:27;31.53;;;21.27;;
353;SDS011;165;53.592;10.044;2023-02-23T05:46:52;37.63;;;23.93;;
353;SDS011;165;53.592;10.044;2023-02-23T05:49:18;33.43;;;21.60;;
353;SDS011;165;53.592;10.044;2023-02-23T05:51:43;34.47;;;21.70;;
353;SDS011;165;53.592;10.044;2023-02-23T05:54:09;36.80;;;21.07;;
353;SDS011;165;53.592;10.044;2023-02-23T05:56:35;36.00;;;23.30;;
353;SDS011;165;53.592;10.044;2023-02-23T05:59:00;32.47;;;20.93;;
353;SDS011;165;53.592;10.044;2023-02-23T06:01:26;34.73;;;20.83;;
353;SDS011;165;53.592;10.044;2023-02-23T06:03:52;37.90;;;21.33;;
353;SDS011;165;53.592;10.044;2023-02-23T06:06:17;36.03;;;22.27;;
353;SDS011;165;53.592;10.044;2023-02-23T06:08:43;34.77;;;22.17;;
353;SDS011;165;53.592;10.044;2023-02-23T06:11:09;39.60;;;21.70;;
353;SDS011;165;53.592;10.044;2023-02-23T06:13:35;37.53;;;23.83;;
353;SDS011;165;53.592;10.044;2023-02-23T06:16:00;31.63;;;20.60;;
353;SDS011;165;53.592;10.044;2023-02-23T06:18:27;41.17;;;25.43;;
353;SDS011;165;53.592;10.044;2023-02-23T06:20:53;46.13;;;26.03;;
353;SDS011;165;53.592;10.044;2023-02-23T06:23:19;48.37;;;27.70;;
353;SDS011;165;53.592;10.044;2023-02-23T06:25:45;50.77;;;28.17;;
353;SDS011;165;53.592;10.044;2023-02-23T06:28:11;52.70;;;29.27;;
353;SDS011;165;53.592;10.044;2023-02-23T06:30:37;46.17;;;26.20;;
353;SDS011;165;53.592;10.044;2023-02-23T06:33:03;49.70;;;27.73;;
353;SDS011;165;53.592;10.044;2023-02-23T06:35:29;41.20;;;24.80;;
353;SDS011;165;53.592;10.044;2023-02-23T06:37:55;47.07;;;27.20;;
353;SDS011;165;53.592;10.044;2023-02-23T06:40:21;49.27;;;27.63;;
353;SDS011;165;53.592;10.044;2023-02-23T06:42:46;51.13;;;28.90;;
353;SDS011;165;53.592;10.044;2023-02-23T06:45:12;56.37;;;29.17;;
353;SDS011;165;53.592;10.044;2023-02-23T06:47:38;46.00;;;28.00;;
353;SDS011;165;53.592;10.044;2023-02-23T06:50:04;45.60;;;27.53;;
353;SDS011;165;53.592;10.044;2023-02-23T06:52:30;45.43;;;28.10;;
353;SDS011;165;53.592;10.044;2023-02-23T06:55:03;49.70;;;27.77;;
353;SDS011;165;53.592;10.044;2023-02-23T06:57:29;52.20;;;27.97;;
353;SDS011;165;53.592;10.044;2023-02-23T06:59:55;46.03;;;27.73;;
353;SDS011;165;53.592;10.044;2023-02-23T07:02:20;47.03;;;28.00;;
353;SDS011;165;53.592;10.044;2023-02-23T07:04:46;52.97;;;28.57;;
353;SDS011;165;53.592;10.044;2023-02-23T07:07:12;58.07;;;28.87;;
353;SDS011;165;53.592;10.044;2023-02-23T07:09:39;64.70;;;31.43;;
353;SDS011;165;53.592;10.044;2023-02-23T07:12:05;50.67;;;29.57;;
353;SDS011;165;53.592;10.044;2023-02-23T07:14:30;60.97;;;30.13;;
353;SDS011;165;53.592;10.044;2023-02-23T07:16:56;63.63;;;29.53;;
353;SDS011;165;53.592;10.044;2023-02-23T07:19:21;60.00;;;32.37;;
353;SDS011;165;53.592;10.044;2023-02-23T07:21:47;55.30;;;29.93;;
353;SDS011;165;53.592;10.044;2023-02-23T07:24:12;59.90;;;30.20;;
353;SDS011;165;53.592;10.044;2023-02-23T07:26:38;59.47;;;33.90;;
353;SDS011;165;53.592;10.044;2023-02-23T07:29:03;67.20;;;31.50;;
353;SDS011;165;53.592;10.044;2023-02-23T07:31:29;57.47;;;29.70;;
353;SDS011;165;53.592;10.044;2023-02-23T07:33:54;62.00;;;29.77;;
353;SDS011;165;53.592;10.044;2023-02-23T07:36:20;75.10;;;35.37;;
353;SDS011;165;53.592;10.044;2023-02-23T07:38:47;71.87;;;32.63;;
353;SDS011;165;53.592;10.044;2023-02-23T07:41:12;70.90;;;36.50;;
353;SDS011;165;53.592;10.044;2023-02-23T07:43:38;73.43;;;33.80;;
353;SDS011;165;53.592;10.044;2023-02-23T07:46:20;73.33;;;31.90;;
353;SDS011;165;53.592;10.044;2023-02-23T07:48:46;69.50;;;35.40;;
353;SDS011;165;53.592;10.044;2023-02-23T07:51:12;64.80;;;33.30;;
353;SDS011;165;53.592;10.044;2023-02-23T07:53:39;70.87;;;31.93;;
353;SDS011;165;53.592;10.044;2023-02-23T07:56:04;66.00;;;35.00;;
353;SDS011;165;53.592;10.044;2023-02-23T07:58:30;66.93;;;33.37;;
353;SDS011;165;53.592;10.044;2023-02-23T08:00:56;65.83;;;30.77;;
353;SDS011;165;53.592;10.044;2023-02-23T08:03:22;60.30;;;30.60;;
353;SDS011;165;53.592;10.044;2023-02-23T08:05:47;61.43;;;28.90;;
353;SDS011;165;53.592;10.044;2023-02-23T08:08:13;58.17;;;31.53;;
353;SDS011;165;53.592;10.044;2023-02-23T08:10:38;54.20;;;28.83;;
353;SDS011;165;53.592;10.044;2023-02-23T08:13:04;56.60;;;29.00;;
353;SDS011;165;53.592;10.044;2023-02-23T08:15:30;57.33;;;25.03;;
353;SDS011;165;53.592;10.044;2023-02-23T08:17:56;58.53;;;29.10;;
353;SDS011;165;53.592;10.044;2023-02-23T08:20:22;50.83;;;26.67;;
353;SDS011;165;53.592;10.044;2023-02-23T08:22:51;58.80;;;28.50;;
353;SDS011;165;53.592;10.044;2023-02-23T08:25:18;53.83;;;27.70;;
353;SDS011;165;53.592;10.044;2023-02-23T08:27:44;45.87;;;24.03;;
353;SDS011;165;53.592;10.044;2023-02-23T08:30:10;52.33;;;29.60;;
353;SDS011;165;53.592;10.044;2023-02-23T08:32:55;53.63;;;27.90;;
353;SDS011;165;53.592;10.044;2023-02-23T08:35:21;56.20;;;29.20;;
353;SDS011;165;53.592;10.044;2023-02-23T08:37:47;52.73;;;26.50;;
353;SDS011;165;53.592;10.044;2023-02-23T08:40:13;53.57;;;29.63;;
353;SDS011;165;53.592;10.044;2023-02-23T08:42:44;54.83;;;28.30;;
353;SDS011;165;53.592;10.044;2023-02-23T08:45:09;56.30;;;30.40;;
353;SDS011;165;53.592;10.044;2023-02-23T08:47:36;56.70;;;31.53;;
353;SDS011;165;53.592;10.044;2023-02-23T08:50:01;51.90;;;29.80;;
353;SDS011;165;53.592;10.044;2023-02-23T08:52:28;49.17;;;26.97;;
353;SDS011;165;53.592;10.044;2023-02-23T08:55:13;53.33;;;28.13;;
353;SDS011;165;53.592;10.044;2023-02-23T08:57:59;51.27;;;28.13;;
353;SDS011;165;53.592;10.044;2023-02-23T09:00:25;51.97;;;30.40;;
353;SDS011;165;53.592;10.044;2023-02-23T09:03:10;53.57;;;27.47;;
353;SDS011;165;53.592;10.044;2023-02-23T09:05:36;53.90;;;29.10;;
353;SDS011;165;53.592;10.044;2023-02-23T09:08:02;63.97;;;33.10;;
353;SDS011;165;53.592;10.044;2023-02-23T09:10:27;54.60;;;29.83;;
353;SDS011;165;53.592;10.044;2023-02-23T09:12:53;52.77;;;28.30;;
353;SDS011;165;53.592;10.044;2023-02-23T09:15:18;55.17;;;28.17;;
353;SDS011;165;53.592;10.044;2023-02-23T09:17:44;52.53;;;31.57;;
353;SDS011;165;53.592;10.044;2023-02-23T09:20:11;57.00;;;32.10;;
353;SDS011;165;53.592;10.044;2023-02-23T09:22:38;57.67;;;29.80;;
353;SDS011;165;53.592;10.044;2023-02-23T09:25:09;57.77;;;30.10;;
353;SDS011;165;53.592;10.044;2023-02-23T09:27:35;61.27;;;33.37;;
353;SDS011;165;53.592;10.044;2023-02-23T09:30:00;65.23;;;34.00;;
353;SDS011;165;53.592;10.044;2023-02-23T09:32:26;66.93;;;35.20;;
353;SDS011;165;53.592;10.044;2023-02-23T09:34:52;71.60;;;35.53;;
353;SDS011;165;53.592;10.044;2023-02-23T09:37:17;74.10;;;38.93;;
353;SDS011;165;53.592;10.044;2023-02-23T09:39:43;84.30;;;40.87;;
353;SDS011;165;53.592;10.044;2023-02-23T09:49:59;85.97;;;40.87;;
353;SDS011;165;53.592;10.044;2023-02-23T09:52:32;100.50;;;42.17;;
353;SDS011;165;53.592;10.044;2023-02-23T09:55:03;91.43;;;38.90;;
353;SDS011;165;53.592;10.044;2023-02-23T09:57:36;85.17;;;43.67;;
353;SDS011;165;53.592;10.044;2023-02-23T10:05:51;124.87;;;51.67;;
353;SDS011;165;53.592;10.044;2023-02-23T10:13:43;125.37;;;49.27;;
353;SDS011;165;53.592;10.044;2023-02-23T10:16:21;132.03;;;48.37;;
353;SDS011;165;53.592;10.044;2023-02-23T10:18:59;138.43;;;54.23;;
353;SDS011;165;53.592;10.044;2023-02-23T10:24:04;116.57;;;45.00;;
353;SDS011;165;53.592;10.044;2023-02-23T10:26:42;119.10;;;46.37;;
353;SDS011;165;53.592;10.044;2023-02-23T10:29:17;105.50;;;46.07;;
353;SDS011;165;53.592;10.044;2023-02-23T10:31:56;118.07;;;43.27;;
353;SDS011;165;53.592;10.044;2023-02-23T10:34:26;114.53;;;47.70;;
353;SDS011;165;53.592;10.044;2023-02-23T10:36:56;103.83;;;45.13;;
353;SDS011;165;53.592;10.044;2023-02-23T10:39:29;122.90;;;42.07;;
353;SDS011;165;53.592;10.044;2023-02-23T10:42:01;104.30;;;41.50;;
353;SDS011;165;53.592;10.044;2023-02-23T10:44:29;103.03;;;39.90;;
353;SDS011;165;53.592;10.044;2023-02-23T10:47:02;97.43;;;40.20;;
353;SDS011;165;53.592;10.044;2023-02-23T10:49:45;97.37;;;40.03;;
353;SDS011;165;53.592;10.044;2023-02-23T10:52:13;100.10;;;41.70;;
353;SDS011;165;53.592;10.044;2023-02-23T10:54:51;95.17;;;41.47;;
353;SDS011;165;53.592;10.044;2023-02-23T10:57:28;100.90;;;40.60;;
353;SDS011;165;53.592;10.044;2023-02-23T11:02:26;100.30;;;39.83;;
353;SDS011;165;53.592;10.044;2023-02-23T11:04:57;89.33;;;38.70;;
353;SDS011;165;53.592;10.044;2023-02-23T11:07:30;93.17;;;40.17;;
353;SDS011;165;53.592;10.044;2023-02-23T11:09:57;96.90;;;38.80;;
353;SDS011;165;53.592;10.044;2023-02-23T11:15:45;92.47;;;40.10;;
353;SDS011;165;53.592;10.044;2023-02-23T11:17:54;89.47;;;36.27;;
353;SDS011;165;53.592;10.044;2023-02-23T11:20:39;88.30;;;37.77;;
353;SDS011;165;53.592;10.044;2023-02-23T11:25:51;75.50;;;33.40;;
353;SDS011;165;53.592;10.044;2023-02-23T11:28:25;72.93;;;34.77;;
353;SDS011;165;53.592;10.044;2023-02-23T11:30:51;72.90;;;33.03;;
353;SDS011;165;53.592;10.044;2023-02-23T11:33:19;66.60;;;30.83;;
353;SDS011;165;53.592;10.044;2023-02-23T11:35:56;61.93;;;29.37;;
353;SDS011;165;53.592;10.044;2023-02-23T11:38:24;64.27;;;33.07;;
353;SDS011;165;53.592;10.044;2023-02-23T11:41:02;63.50;;;30.37;;
353;SDS011;165;53.592;10.044;2023-02-23T11:43:30;66.17;;;31.60;;
353;SDS011;165;53.592;10.044;2023-02-23T11:45:56;69.73;;;32.43;;
353;SDS011;165;53.592;10.044;2023-02-23T11:48:26;61.33;;;30.10;;
353;SDS011;165;53.592;10.044;2023-02-23T11:50:56;61.40;;;31.00;;
353;SDS011;165;53.592;10.044;2023-02-23T11:53:44;70.90;;;33.50;;
353;SDS011;165;53.592;10.044;2023-02-23T11:56:10;68.07;;;34.40;;
353;SDS011;165;53.592;10.044;2023-02-23T12:01:08;67.27;;;31.50;;
353;SDS011;165;53.592;10.044;2023-02-23T12:03:37;63.90;;;30.07;;
353;SDS011;165;53.592;10.044;2023-02-23T12:06:09;59.33;;;32.73;;
353;SDS011;165;53.592;10.044;2023-02-23T12:08:46;67.67;;;32.57;;
353;SDS011;165;53.592;10.044;2023-02-23T12:11:17;68.07;;;33.30;;
353;SDS011;165;53.592;10.044;2023-02-23T12:14:32;51.43;;;28.07;;
353;SDS011;165;53.592;10.044;2023-02-23T12:16:59;56.03;;;28.60;;
353;SDS011;165;53.592;10.044;2023-02-23T12:19:38;64.93;;;30.50;;
353;SDS011;165;53.592;10.044;2023-02-23T12:22:18;70.00;;;32.93;;
353;SDS011;165;53.592;10.044;2023-02-23T12:25:03;57.93;;;29.57;;
353;SDS011;165;53.592;10.044;2023-02-23T12:27:39;63.83;;;31.90;;
353;SDS011;165;53.592;10.044;2023-02-23T12:38:14;62.07;;;29.90;;
353;SDS011;165;53.592;10.044;2023-02-23T12:41:02;57.70;;;27.10;;
353;SDS011;165;53.592;10.044;2023-02-23T12:46:21;59.80;;;30.80;;
353;SDS011;165;53.592;10.044;2023-02-23T12:51:48;63.47;;;30.20;;
353;SDS011;165;53.592;10.044;2023-02-23T12:54:17;64.17;;;29.07;;
353;SDS011;165;53.592;10.044;2023-02-23T12:57:17;58.67;;;29.67;;
353;SDS011;165;53.592;10.044;2023-02-23T12:59:56;62.20;;;27.67;;
353;SDS011;165;53.592;10.044;2023-02-23T13:02:46;56.07;;;29.40;;
353;SDS011;165;53.592;10.044;2023-02-23T13:05:22;56.27;;;29.20;;
353;SDS011;165;53.592;10.044;2023-02-23T13:08:01;60.50;;;26.00;;
353;SDS011;165;53.592;10.044;2023-02-23T13:16:10;55.83;;;29.43;;
353;SDS011;165;53.592;10.044;2023-02-23T13:18:58;60.20;;;27.50;;
353;SDS011;165;53.592;10.044;2023-02-23T13:24:06;53.00;;;27.77;;
353;SDS011;165;53.592;10.044;2023-02-23T13:29:36;46.37;;;25.03;;
353;SDS011;165;53.592;10.044;2023-02-23T13:32:04;66.70;;;33.07;;
353;SDS011;165;53.592;10.044;2023-02-23T13:34:40;53.87;;;24.83;;
353;SDS011;165;53.592;10.044;2023-02-23T13:37:08;58.13;;;24.83;;
353;SDS011;165;53.592;10.044;2023-02-23T13:42:39;43.17;;;23.53;;
353;SDS011;165;53.592;10.044;2023-02-23T13:51:07;46.13;;;23.40;;
353;SDS011;165;53.592;10.044;2023-02-23T13:53:43;45.03;;;24.43;;
353;SDS011;165;53.592;10.044;2023-02-23T13:56:17;37.57;;;23.03;;
353;SDS011;165;53.592;10.044;2023-02-23T13:58:50;44.27;;;22.17;;
353;SDS011;165;53.592;10.044;2023-02-23T14:01:27;48.77;;;23.77;;
353;SDS011;165;53.592;10.044;2023-02-23T14:04:00;48.70;;;22.87;;
353;SDS011;165;53.592;10.044;2023-02-23T14:06:29;45.33;;;21.63;;
353;SDS011;165;53.592;10.044;2023-02-23T14:09:07;43.30;;;24.80;;
353;SDS011;165;53.592;10.044;2023-02-23T14:11:38;39.60;;;22.90;;
353;SDS011;165;53.592;10.044;2023-02-23T14:19:42;38.13;;;17.83;;
353;SDS011;165;53.592;10.044;2023-02-23T14:22:20;32.73;;;18.80;;
353;SDS011;165;53.592;10.044;2023-02-23T14:24:45;39.57;;;18.73;;
353;SDS011;165;53.592;10.044;2023-02-23T14:27:32;39.10;;;20.30;;
353;SDS011;165;53.592;10.044;2023-02-23T14:30:14;34.80;;;15.97;;
353;SDS011;165;53.592;10.044;2023-02-23T14:32:44;29.87;;;16.37;;
353;SDS011;165;53.592;10.044;2023-02-23T14:37:58;39.43;;;19.20;;
353;SDS011;165;53.592;10.044;2023-02-23T14:40:37;39.40;;;17.87;;
353;SDS011;165;53.592;10.044;2023-02-23T14:43:38;26.53;;;15.50;;
353;SDS011;165;53.592;10.044;2023-02-23T14:45:53;25.50;;;14.60;;
353;SDS011;165;53.592;10.044;2023-02-23T14:48:22;26.30;;;15.43;;
353;SDS011;165;53.592;10.044;2023-02-23T14:50:47;28.20;;;15.43;;
353;SDS011;165;53.592;10.044;2023-02-23T14:53:23;30.27;;;15.00;;
353;SDS011;165;53.592;10.044;2023-02-23T14:55:49;24.17;;;13.13;;
353;SDS011;165;53.592;10.044;2023-02-23T14:58:20;22.40;;;12.77;;
353;SDS011;165;53.592;10.044;2023-02-23T15:00:46;22.40;;;12.13;;
353;SDS011;165;53.592;10.044;2023-02-23T15:03:12;24.17;;;13.20;;
353;SDS011;165;53.592;10.044;2023-02-23T15:05:41;24.73;;;12.10;;
353;SDS011;165;53.592;10.044;2023-02-23T15:08:25;24.20;;;12.03;;
353;SDS011;165;53.592;10.044;2023-02-23T15:11:06;18.93;;;10.93;;
353;SDS011;165;53.592;10.044;2023-02-23T15:13:41;20.30;;;11.90;;
353;SDS011;165;53.592;10.044;2023-02-23T15:16:13;22.17;;;12.73;;
353;SDS011;165;53.592;10.044;2023-02-23T15:21:49;27.77;;;13.30;;
353;SDS011;165;53.592;10.044;2023-02-23T15:27:34;30.30;;;14.30;;
353;SDS011;165;53.592;10.044;2023-02-23T15:32:43;24.70;;;13.67;;
353;SDS011;165;53.592;10.044;2023-02-23T15:35:10;27.20;;;14.90;;
353;SDS011;165;53.592;10.044;2023-02-23T15:40:04;24.90;;;14.87;;
353;SDS011;165;53.592;10.044;2023-02-23T15:42:37;33.40;;;15.90;;
353;SDS011;165;53.592;10.044;2023-02-23T19:44:31;9.13;;;6.33;;
353;SDS011;165;53.592;10.044;2023-02-23T19:47:01;34.97;;;8.50;;
353;SDS011;165;53.592;10.044;2023-02-23T19:49:31;17.83;;;7.73;;
353;SDS011;165;53.592;10.044;2023-02-23T19:51:57;17.73;;;8.30;;
353;SDS011;165;53.592;10.044;2023-02-23T19:54:22;14.00;;;6.90;;
353;SDS011;165;53.592;10.044;2023-02-23T19:56:48;10.20;;;7.20;;
353;SDS011;165;53.592;10.044;2023-02-23T19:59:15;12.40;;;6.50;;
353;SDS011;165;53.592;10.044;2023-02-23T20:01:43;10.50;;;6.30;;
353;SDS011;165;53.592;10.044;2023-02-23T20:04:09;10.47;;;7.73;;
353;SDS011;165;53.592;10.044;2023-02-23T20:06:44;13.80;;;7.37;;
353;SDS011;165;53.592;10.044;2023-02-23T20:09:10;12.23;;;6.80;;
353;SDS011;165;53.592;10.044;2023-02-23T20:11:36;15.20;;;6.77;;
353;SDS011;165;53.592;10.044;2023-02-23T20:14:03;21.10;;;6.80;;
353;SDS011;165;53.592;10.044;2023-02-23T20:16:35;15.17;;;6.77;;
353;SDS011;165;53.592;10.044;2023-02-23T20:19:00;13.37;;;7.17;;
353;SDS011;165;53.592;10.044;2023-02-23T20:21:27;10.07;;;6.37;;
353;SDS011;165;53.592;10.044;2023-02-23T20:23:53;18.80;;;7.17;;
353;SDS011;165;53.592;10.044;2023-02-23T20:26:20;13.93;;;7.40;;
353;SDS011;165;53.592;10.044;2023-02-23T20:28:48;18.50;;;7.17;;
353;SDS011;165;53.592;10.044;2023-02-23T20:31:15;11.57;;;6.67;;
353;SDS011;165;53.592;10.044;2023-02-23T20:33:48;10.13;;;6.77;;
353;SDS011;165;53.592;10.044;2023-02-23T20:36:15;13.37;;;7.40;;
353;SDS011;165;53.592;10.044;2023-02-23T20:38:42;11.07;;;6.23;;
353;SDS011;165;53.592;10.044;2023-02-23T20:41:08;13.10;;;6.43;;
353;SDS011;165;53.592;10.044;2023-02-23T20:43:37;16.13;;;7.63;;
353;SDS011;165;53.592;10.044;2023-02-23T20:46:03;13.07;;;6.50;;
353;SDS011;165;53.592;10.044;2023-02-23T20:48:29;12.33;;;6.70;;
353;SDS011;165;53.592;10.044;2023-02-23T20:50:58;9.67;;;7.20;;
353;SDS011;165;53.592;10.044;2023-02-23T20:53:24;11.87;;;7.83;;
353;SDS011;165;53.592;10.044;2023-02-23T20:55:53;14.63;;;10.00;;
353;SDS011;165;53.592;10.044;2023-02-23T20:58:19;13.90;;;7.40;;
353;SDS011;165;53.592;10.044;2023-02-23T21:00:45;11.40;;;8.07;;
353;SDS011;165;53.592;10.044;2023-02-23T21:03:11;12.70;;;7.70;;
353;SDS011;165;53.592;10.044;2023-02-23T21:05:37;15.83;;;7.50;;
353;SDS011;165;53.592;10.044;2023-02-23T21:08:07;9.10;;;7.93;;
353;SDS011;165;53.592;10.044;2023-02-23T21:10:36;13.70;;;8.47;;
353;SDS011;165;53.592;10.044;2023-02-23T21:13:03;10.60;;;7.70;;
353;SDS011;165;53.592;10.044;2023-02-23T21:15:32;11.93;;;7.60;;